Time;durP1;ratioP1;P1;durP2;ratioP2;P2;SDS_P1;SDS_P2;PMS_P1;PMS_P2;Temp;Humidity;BMP_temperature;BMP_pressure;BME280_temperature;BME280_humidity;BME280_pressure;Samples;Min_cycle;Max_cycle;Signal;HPM_P1;HPM_P2
2020/12/15 00:01:23;;;;;;;6.32;5.30;;;;;;;8.73;89.16;98805.94;5074211;28;20184;-67
2020/12/15 00:03:50;;;;;;;5.18;4.68;;;;;;;8.76;88.95;98811.13;5091462;28;20223;-67
2020/12/15 00:06:18;;;;;;;6.25;5.38;;;;;;;8.62;89.67;98817.34;5094870;28;20207;-68
2020/12/15 00:08:45;;;;;;;8.00;5.95;;;;;;;8.64;90.21;98803.81;5078602;28;20193;-68
2020/12/15 00:11:17;;;;;;;6.68;5.45;;;;;;;8.64;90.83;98822.59;5074288;28;20208;-68
2020/12/15 00:13:43;;;;;;;5.63;5.10;;;;;;;8.78;90.06;98822.63;5073722;28;20615;-67
2020/12/15 00:16:10;;;;;;;10.50;5.28;;;;;;;8.88;89.65;98822.88;5073919;28;20209;-69
2020/12/15 00:18:36;;;;;;;5.82;4.90;;;;;;;8.83;89.63;98823.19;5073971;28;20209;-67
2020/12/15 00:21:02;;;;;;;8.77;4.63;;;;;;;8.74;89.73;98821.09;5072977;28;21094;-68
2020/12/15 00:23:29;;;;;;;8.05;5.18;;;;;;;8.76;89.93;98827.22;5073876;28;20216;-67
2020/12/15 00:25:56;;;;;;;7.25;5.28;;;;;;;8.60;90.61;98821.09;5081715;28;20198;-67
2020/12/15 00:28:22;;;;;;;8.15;6.05;;;;;;;8.48;90.66;98822.69;5092089;28;20237;-68
2020/12/15 00:30:48;;;;;;;7.97;6.28;;;;;;;8.52;91.54;98821.56;5093646;28;20185;-68
2020/12/15 00:33:14;;;;;;;7.10;5.70;;;;;;;8.62;90.92;98816.50;5079299;28;20203;-68
2020/12/15 00:35:40;;;;;;;6.40;5.00;;;;;;;8.58;91.28;98813.13;5073516;28;20202;-68
2020/12/15 00:38:07;;;;;;;6.18;5.68;;;;;;;8.52;91.63;98811.72;5073457;28;20217;-68
2020/12/15 00:40:34;;;;;;;7.68;5.85;;;;;;;8.40;92.52;98815.13;5073453;28;20251;-68
2020/12/15 00:43:00;;;;;;;5.70;4.80;;;;;;;8.50;91.84;98810.06;5073355;28;20206;-68
2020/12/15 00:45:26;;;;;;;7.93;5.35;;;;;;;8.49;92.28;98814.56;5073726;28;20600;-68
2020/12/15 00:47:52;;;;;;;8.63;4.95;;;;;;;8.49;91.92;98817.25;5073299;28;20210;-68
2020/12/15 00:50:18;;;;;;;7.47;5.45;;;;;;;8.46;92.84;98808.53;5073393;28;20312;-68
2020/12/15 00:52:44;;;;;;;6.60;5.20;;;;;;;8.54;92.57;98809.75;5073125;28;20291;-68
2020/12/15 00:55:11;;;;;;;5.65;5.05;;;;;;;8.51;92.65;98804.59;5072903;28;20206;-67
2020/12/15 00:57:38;;;;;;;5.90;5.32;;;;;;;8.37;93.61;98793.84;5080111;28;20200;-67
2020/12/15 01:00:07;;;;;;;7.20;5.40;;;;;;;8.45;94.22;98793.38;5093153;28;20743;-68
2020/12/15 01:02:34;;;;;;;6.25;5.25;;;;;;;8.54;94.57;98787.44;5093065;28;20211;-68
2020/12/15 01:05:00;;;;;;;5.78;5.20;;;;;;;8.53;93.59;98791.09;5092996;28;20228;-68
2020/12/15 01:07:26;;;;;;;6.20;5.03;;;;;;;8.59;93.49;98788.00;5093447;28;20285;-69
2020/12/15 01:09:52;;;;;;;7.45;5.25;;;;;;;8.54;93.98;98782.94;5092304;28;20286;-66
2020/12/15 01:12:18;;;;;;;5.40;4.65;;;;;;;8.56;94.85;98788.22;5092189;28;20198;-67
2020/12/15 01:14:45;;;;;;;7.45;5.45;;;;;;;8.49;94.80;98782.38;5093004;28;20282;-68
2020/12/15 01:17:12;;;;;;;7.63;5.03;;;;;;;8.45;95.43;98785.34;5093577;28;20217;-68
2020/12/15 01:19:38;;;;;;;6.75;5.45;;;;;;;8.40;96.44;98788.31;5083998;28;20208;-68
2020/12/15 01:22:04;;;;;;;6.32;5.22;;;;;;;8.40;96.48;98788.31;5072773;28;20212;-68
2020/12/15 01:24:30;;;;;;;6.50;4.82;;;;;;;8.45;96.70;98780.81;5072668;28;20283;-67
2020/12/15 01:26:57;;;;;;;6.15;4.82;;;;;;;8.46;96.63;98787.09;5072834;28;20259;-69
2020/12/15 01:29:23;;;;;;;5.00;4.28;;;;;;;8.53;96.05;98785.72;5072479;28;20185;-68
2020/12/15 01:31:50;;;;;;;6.25;4.25;;;;;;;8.55;96.15;98789.19;5072584;28;20185;-68
2020/12/15 01:34:16;;;;;;;5.15;4.70;;;;;;;8.57;96.16;98781.91;5072882;28;20201;-67
2020/12/15 01:36:42;;;;;;;5.15;4.55;;;;;;;8.76;95.43;98790.50;5072553;28;20277;-68
2020/12/15 01:39:09;;;;;;;5.90;4.97;;;;;;;8.69;95.27;98793.69;5072398;28;20245;-67
2020/12/15 01:41:35;;;;;;;6.15;4.57;;;;;;;8.64;95.81;98790.41;5092805;28;20285;-67
2020/12/15 01:44:03;;;;;;;5.60;4.57;;;;;;;8.54;96.60;98790.97;5092870;28;20629;-68
2020/12/15 01:46:31;;;;;;;6.25;4.80;;;;;;;8.63;96.86;98794.91;5082609;28;20280;-67
2020/12/15 01:48:58;;;;;;;5.70;4.32;;;;;;;8.67;96.23;98795.59;5071983;28;20200;-67
2020/12/15 01:51:26;;;;;;;5.40;4.00;;;;;;;8.88;95.47;98801.41;5072402;28;20208;-68
2020/12/15 01:53:54;;;;;;;5.53;4.10;;;;;;;8.67;96.12;98787.53;5072024;28;20186;-67
2020/12/15 01:56:21;;;;;;;4.53;4.13;;;;;;;8.80;96.84;98793.84;5071970;28;20264;-67
2020/12/15 01:58:53;;;;;;;6.43;4.60;;;;;;;8.70;96.64;98788.19;5072205;28;20282;-68
2020/12/15 02:01:19;;;;;;;6.28;4.78;;;;;;;8.56;98.41;98785.53;5080103;28;20272;-68
2020/12/15 02:03:45;;;;;;;6.00;4.65;;;;;;;8.70;98.00;98784.66;5091884;28;20253;-67
2020/12/15 02:06:12;;;;;;;4.68;4.13;;;;;;;8.64;98.08;98783.25;5092535;28;20603;-68
2020/12/15 02:08:39;;;;;;;4.95;3.85;;;;;;;8.69;98.54;98781.13;5092039;28;20271;-69
2020/12/15 02:11:05;;;;;;;6.97;4.90;;;;;;;8.66;98.28;98767.91;5092508;28;20201;-68
2020/12/15 02:13:31;;;;;;;5.72;4.47;;;;;;;8.64;99.07;98780.56;5078725;28;20280;-68
2020/12/15 02:15:57;;;;;;;5.10;4.00;;;;;;;8.67;98.97;98776.81;5070681;28;20197;-68
2020/12/15 02:18:24;;;;;;;5.30;4.80;;;;;;;8.69;99.29;98781.13;5071549;28;20254;-68
2020/12/15 02:20:50;;;;;;;6.40;4.45;;;;;;;8.77;99.40;98772.56;5089574;28;20203;-68
2020/12/15 02:23:17;;;;;;;5.00;4.35;;;;;;;8.79;99.08;98772.47;5092133;28;20205;-68
2020/12/15 02:25:43;;;;;;;4.70;4.10;;;;;;;8.78;99.24;98777.00;5091818;28;20301;-68
2020/12/15 02:28:09;;;;;;;6.70;4.47;;;;;;;8.72;99.66;98763.94;5072503;28;20188;-68
2020/12/15 02:30:36;;;;;;;5.28;4.15;;;;;;;8.64;100.00;98768.94;5071813;28;20624;-66
2020/12/15 02:33:02;;;;;;;5.90;4.20;;;;;;;8.65;100.00;98768.00;5071345;28;20216;-68
2020/12/15 02:35:28;;;;;;;5.65;4.32;;;;;;;8.69;100.00;98766.84;5071372;28;20186;-67
2020/12/15 02:37:54;;;;;;;5.97;4.65;;;;;;;8.65;100.00;98766.16;5071961;28;20206;-68
2020/12/15 02:40:21;;;;;;;4.47;4.03;;;;;;;8.68;100.00;98760.63;5071500;28;20242;-68
2020/12/15 02:42:48;;;;;;;6.53;4.57;;;;;;;8.78;100.00;98758.19;5072297;28;20291;-68
2020/12/15 02:45:14;;;;;;;6.55;4.50;;;;;;;8.94;100.00;98758.06;5076101;28;20222;-68
2020/12/15 02:47:40;;;;;;;4.95;3.67;;;;;;;8.89;100.00;98766.44;5075830;28;21022;-68
2020/12/15 02:50:06;;;;;;;6.47;4.43;;;;;;;8.82;100.00;98757.06;5075647;28;20248;-68
2020/12/15 02:52:32;;;;;;;6.97;4.00;;;;;;;8.64;100.00;98760.88;5075512;28;20181;-68
2020/12/15 02:54:58;;;;;;;6.78;4.72;;;;;;;8.53;100.00;98756.22;5075593;28;20280;-68
2020/12/15 02:57:26;;;;;;;8.23;4.63;;;;;;;8.43;100.00;98755.06;5075675;28;20613;-68
2020/12/15 02:59:52;;;;;;;7.03;4.90;;;;;;;8.34;100.00;98751.09;5075250;28;20233;-68
2020/12/15 03:02:33;;;;;;;6.25;5.15;;;;;;;8.29;100.00;98750.53;5075628;28;20235;-68
2020/12/15 03:05:00;;;;;;;6.00;5.40;;;;;;;8.23;100.00;98753.59;5013279;28;20306;-68
2020/12/15 03:07:26;;;;;;;5.72;5.13;;;;;;;8.17;100.00;98737.91;5013382;28;20206;-68
2020/12/15 03:09:52;;;;;;;5.90;5.20;;;;;;;8.24;100.00;98742.78;5013411;28;20235;-68
2020/12/15 03:12:19;;;;;;;10.13;5.28;;;;;;;8.28;100.00;98743.47;5013303;28;20193;-68
2020/12/15 03:14:46;;;;;;;6.85;5.93;;;;;;;8.27;100.00;98745.25;5012545;28;20359;-67
2020/12/15 03:17:13;;;;;;;8.32;6.03;;;;;;;8.31;100.00;98752.16;5013151;28;20202;-67
2020/12/15 03:19:39;;;;;;;6.32;5.15;;;;;;;8.26;100.00;98748.91;5013046;28;20234;-67
2020/12/15 03:22:05;;;;;;;7.03;5.53;;;;;;;8.26;100.00;98750.72;5013039;28;20337;-68
2020/12/15 03:24:31;;;;;;;11.07;5.60;;;;;;;8.24;100.00;98749.97;5013129;28;20584;-67
2020/12/15 03:26:57;;;;;;;6.72;5.65;;;;;;;8.21;100.00;98742.97;5013083;28;20183;-67
2020/12/15 03:29:24;;;;;;;9.25;5.53;;;;;;;8.21;100.00;98742.97;5012834;28;20203;-67
2020/12/15 03:31:51;;;;;;;7.85;5.72;;;;;;;8.22;100.00;98746.50;5013015;28;20300;-68
2020/12/15 03:34:17;;;;;;;8.18;6.40;;;;;;;8.15;100.00;98736.16;5012818;28;20200;-67
2020/12/15 03:36:43;;;;;;;7.70;6.18;;;;;;;8.09;100.00;98733.84;5012811;28;20585;-68
2020/12/15 03:39:09;;;;;;;8.57;6.15;;;;;;;8.08;100.00;98728.59;5012831;28;20552;-68
2020/12/15 03:41:35;;;;;;;7.20;5.80;;;;;;;8.10;100.00;98732.06;5031490;28;20243;-68
2020/12/15 03:44:01;;;;;;;7.82;6.60;;;;;;;8.09;100.00;98731.16;5074255;28;20224;-68
2020/12/15 03:46:28;;;;;;;6.53;5.82;;;;;;;8.06;100.00;98720.63;5074868;28;20275;-68
2020/12/15 03:48:56;;;;;;;9.15;6.63;;;;;;;8.12;100.00;98716.72;5074682;28;20577;-68
2020/12/15 03:51:22;;;;;;;9.57;6.35;;;;;;;8.18;100.00;98720.84;5074911;28;20319;-68
2020/12/15 03:53:48;;;;;;;7.50;6.00;;;;;;;8.22;100.00;98719.69;5074170;28;20183;-67
2020/12/15 03:56:14;;;;;;;8.85;6.93;;;;;;;8.20;100.00;98725.13;5074641;28;20665;-68
2020/12/15 03:58:41;;;;;;;7.43;6.63;;;;;;;8.26;100.00;98729.28;5074385;28;20324;-68
2020/12/15 04:01:07;;;;;;;9.05;7.22;;;;;;;8.22;100.00;98728.59;5074312;28;20258;-68
2020/12/15 04:03:34;;;;;;;7.25;5.80;;;;;;;8.27;100.00;98726.47;5074554;28;20250;-68
2020/12/15 04:06:01;;;;;;;12.07;7.28;;;;;;;8.29;100.00;98732.59;5074135;28;20184;-68
2020/12/15 04:08:27;;;;;;;7.03;6.38;;;;;;;8.33;100.00;98728.78;5074350;28;20197;-68
2020/12/15 04:10:54;;;;;;;7.95;5.82;;;;;;;8.29;100.00;98734.44;5074142;28;20204;-68
2020/12/15 04:13:20;;;;;;;9.52;6.13;;;;;;;8.35;100.00;98734.06;5074084;28;20236;-68
2020/12/15 04:15:48;;;;;;;7.55;5.70;;;;;;;8.32;100.00;98735.13;5073800;28;20258;-68
2020/12/15 04:18:14;;;;;;;8.50;6.90;;;;;;;8.33;100.00;98735.97;5077760;28;20280;-68
2020/12/15 04:20:41;;;;;;;8.40;6.55;;;;;;;8.28;100.00;98738.94;5073709;28;20197;-68
2020/12/15 04:23:08;;;;;;;10.15;8.00;;;;;;;8.43;100.00;98742.50;5073761;28;20188;-68
2020/12/15 04:25:37;;;;;;;10.98;6.90;;;;;;;8.41;100.00;98733.72;5073902;28;20220;-68
2020/12/15 04:28:03;;;;;;;11.07;7.18;;;;;;;8.36;100.00;98730.41;5073990;28;20217;-68
2020/12/15 04:30:30;;;;;;;9.23;6.75;;;;;;;8.32;100.00;98727.06;5073722;28;20181;-68
2020/12/15 04:32:56;;;;;;;9.32;6.43;;;;;;;8.28;100.00;98735.41;5073667;28;20205;-68
2020/12/15 04:35:22;;;;;;;8.90;7.05;;;;;;;8.33;100.00;98733.28;5073904;28;20188;-67
2020/12/15 04:37:48;;;;;;;10.45;7.75;;;;;;;8.24;100.00;98729.34;5073592;28;20196;-68
2020/12/15 04:40:15;;;;;;;10.80;7.80;;;;;;;8.30;100.00;98734.34;5073476;28;20247;-68
2020/12/15 04:42:42;;;;;;;11.60;7.60;;;;;;;8.42;100.00;98732.75;5073385;28;20292;-68
2020/12/15 04:45:08;;;;;;;10.70;7.90;;;;;;;8.36;100.00;98733.09;5073219;28;20209;-69
2020/12/15 04:47:38;;;;;;;10.30;7.47;;;;;;;8.32;100.00;98739.59;5073767;28;20539;-67
2020/12/15 04:50:06;;;;;;;8.25;6.95;;;;;;;8.34;100.00;98729.63;5073297;28;20205;-68
2020/12/15 04:52:45;;;;;;;12.07;7.38;;;;;;;8.32;100.00;98728.88;5073426;28;20688;-67
2020/12/15 04:55:12;;;;;;;9.80;7.35;;;;;;;8.31;100.00;98729.84;5073585;28;20260;-68
2020/12/15 04:57:40;;;;;;;11.55;8.20;;;;;;;8.39;100.00;98729.34;5073460;28;20266;-68
2020/12/15 05:00:09;;;;;;;10.90;8.25;;;;;;;8.50;100.00;98734.94;5072928;28;20234;-68
2020/12/15 05:02:41;;;;;;;11.25;8.27;;;;;;;8.44;100.00;98728.16;5076646;28;20547;-66
2020/12/15 05:05:08;;;;;;;11.07;8.25;;;;;;;8.37;100.00;98729.47;5080724;28;20211;-68
2020/12/15 05:07:39;;;;;;;10.50;8.52;;;;;;;8.48;100.00;98728.78;5073037;28;20697;-68
2020/12/15 05:10:06;;;;;;;13.13;8.00;;;;;;;8.60;100.00;98728.03;5073189;28;20190;-68
2020/12/15 05:12:32;;;;;;;13.50;7.45;;;;;;;8.68;100.00;98725.72;5073219;28;20238;-68
2020/12/15 05:14:59;;;;;;;10.38;8.13;;;;;;;8.66;100.00;98718.72;5072371;28;20207;-67
2020/12/15 05:17:28;;;;;;;8.90;7.38;;;;;;;8.71;100.00;98719.31;5086563;28;20287;-67
2020/12/15 05:19:55;;;;;;;10.25;7.10;;;;;;;8.88;100.00;98712.81;5092301;28;20486;-68
2020/12/15 05:22:21;;;;;;;9.95;6.85;;;;;;;8.98;100.00;98714.81;5092914;28;20303;-68
2020/12/15 05:24:48;;;;;;;10.15;6.30;;;;;;;9.06;100.00;98716.97;5092941;28;20704;-67
2020/12/15 05:27:29;;;;;;;9.68;6.45;;;;;;;9.14;100.00;98703.06;5092810;28;20221;-68
2020/12/15 05:30:05;;;;;;;8.77;6.95;;;;;;;9.14;100.00;98716.50;5092678;28;20189;-68
2020/12/15 05:32:32;;;;;;;9.20;6.43;;;;;;;9.21;100.00;98720.50;5074922;28;20194;-69
2020/12/15 05:35:06;;;;;;;10.90;7.10;;;;;;;9.11;100.00;98717.56;5072361;28;20198;-69
2020/12/15 05:37:32;;;;;;;10.48;6.97;;;;;;;9.16;100.00;98726.16;5072263;28;20240;-67
2020/12/15 05:40:00;;;;;;;8.05;6.85;;;;;;;9.29;100.00;98722.66;5072133;28;20200;-68
2020/12/15 05:42:27;;;;;;;10.50;6.93;;;;;;;9.21;100.00;98719.63;5082586;28;20330;-67
2020/12/15 05:44:56;;;;;;;10.60;6.68;;;;;;;9.24;100.00;98720.28;5076050;28;20210;-67
2020/12/15 05:47:24;;;;;;;9.07;6.60;;;;;;;9.30;100.00;98719.88;5072085;28;20251;-67
2020/12/15 05:49:52;;;;;;;10.55;7.20;;;;;;;9.26;100.00;98717.50;5072336;28;20191;-67
2020/12/15 05:52:27;;;;;;;9.80;8.00;;;;;;;9.34;100.00;98721.41;5071863;28;20175;-68
2020/12/15 05:55:05;;;;;;;12.82;7.18;;;;;;;9.36;100.00;98724.84;5072304;28;20566;-69
2020/12/15 05:57:31;;;;;;;12.18;7.60;;;;;;;9.44;100.00;98720.78;5072171;28;20293;-68
2020/12/15 06:00:07;;;;;;;9.45;6.90;;;;;;;9.51;100.00;98725.63;5071548;28;20226;-67
2020/12/15 06:02:35;;;;;;;11.13;7.70;;;;;;;9.56;100.00;98722.63;5072026;28;20229;-67
2020/12/15 06:05:01;;;;;;;10.07;7.60;;;;;;;9.52;100.00;98713.94;5087860;28;20220;-68
2020/12/15 06:07:28;;;;;;;8.25;6.35;;;;;;;9.52;100.00;98713.03;5085791;28;20185;-68
2020/12/15 06:09:57;;;;;;;10.55;7.28;;;;;;;9.54;100.00;98711.09;5071494;28;20251;-67
2020/12/15 06:12:23;;;;;;;12.50;7.85;;;;;;;9.45;100.00;98718.00;5071916;28;20589;-67
2020/12/15 06:14:50;;;;;;;10.10;7.22;;;;;;;9.57;100.00;98718.97;5070851;28;20204;-68
2020/12/15 06:17:18;;;;;;;10.88;7.72;;;;;;;9.55;100.00;98718.22;5071086;28;20194;-68
2020/12/15 06:19:50;;;;;;;11.55;6.90;;;;;;;9.62;100.00;98718.66;5071227;28;20290;-67
2020/12/15 06:22:17;;;;;;;13.25;8.77;;;;;;;9.68;100.00;98708.38;5082326;28;20310;-68
2020/12/15 06:24:54;;;;;;;12.98;7.57;;;;;;;9.61;100.00;98707.06;5091718;28;20267;-67
2020/12/15 06:27:30;;;;;;;12.65;7.85;;;;;;;9.65;100.00;98708.56;5082970;28;20189;-67
2020/12/15 06:29:56;;;;;;;8.57;7.68;;;;;;;9.65;100.00;98707.69;5071401;28;20198;-67
2020/12/15 06:32:23;;;;;;;10.10;7.40;;;;;;;9.77;100.00;98713.09;5071770;28;20198;-67
2020/12/15 06:34:52;;;;;;;9.88;8.63;;;;;;;9.83;100.00;98711.81;5071134;28;20206;-67
2020/12/15 06:37:20;;;;;;;24.58;11.90;;;;;;;9.82;100.00;98715.47;5071436;28;20655;-68
2020/12/15 06:39:57;;;;;;;8.40;6.88;;;;;;;9.79;100.00;98707.59;5071519;28;20267;-68
2020/12/15 06:42:24;;;;;;;16.08;9.70;;;;;;;9.83;100.00;98717.19;5071201;28;20216;-67
2020/12/15 06:45:04;;;;;;;11.52;8.50;;;;;;;9.82;100.00;98713.63;5075835;28;20229;-69
2020/12/15 06:47:31;;;;;;;11.60;9.60;;;;;;;9.86;100.00;98721.47;5071095;28;20209;-67
2020/12/15 06:50:09;;;;;;;10.93;9.05;;;;;;;9.77;100.00;98721.16;5071458;28;20341;-68
2020/12/15 06:52:35;;;;;;;12.05;8.20;;;;;;;9.80;100.00;98720.09;5070706;28;20249;-67
2020/12/15 06:55:01;;;;;;;13.95;7.88;;;;;;;10.14;100.00;98731.19;5071033;28;20183;-67
2020/12/15 06:57:32;;;;;;;11.38;7.80;;;;;;;9.95;100.00;98735.16;5076040;28;20600;-67
2020/12/15 07:00:04;;;;;;;11.70;8.35;;;;;;;9.80;100.00;98730.84;5070438;28;20223;-67
2020/12/15 07:02:32;;;;;;;12.57;9.05;;;;;;;9.75;100.00;98731.16;5071335;28;20627;-68
2020/12/15 07:05:19;;;;;;;15.05;10.88;;;;;;;9.82;100.00;98731.59;5070880;28;20209;-67
2020/12/15 07:07:50;;;;;;;14.88;9.95;;;;;;;9.86;100.00;98732.22;5071352;28;20305;-68
2020/12/15 07:10:17;;;;;;;13.82;8.23;;;;;;;9.82;100.00;98739.66;5071016;28;20230;-67
2020/12/15 07:12:47;;;;;;;15.18;9.20;;;;;;;9.94;100.00;98737.97;5070510;28;20206;-67
2020/12/15 07:15:13;;;;;;;12.90;9.55;;;;;;;9.98;100.00;98747.53;5071108;28;20198;-68
2020/12/15 07:17:45;;;;;;;11.73;8.90;;;;;;;10.00;100.00;98749.16;5070818;28;20214;-68
2020/12/15 07:20:12;;;;;;;12.10;9.65;;;;;;;10.06;100.00;98745.16;5070700;28;20233;-67
2020/12/15 07:22:40;;;;;;;14.23;9.35;;;;;;;10.03;100.00;98745.38;5071036;28;20712;-67
2020/12/15 07:25:08;;;;;;;10.75;7.93;;;;;;;10.11;99.24;98737.66;5070665;28;20212;-67
2020/12/15 07:27:35;;;;;;;14.13;9.65;;;;;;;10.11;99.04;98742.19;5070881;28;20531;-67
2020/12/15 07:30:02;;;;;;;13.30;9.05;;;;;;;10.01;100.00;98737.41;5076423;28;20270;-67
2020/12/15 07:32:28;;;;;;;17.92;9.45;;;;;;;9.96;100.00;98747.63;5091601;28;20201;-68
2020/12/15 07:35:02;;;;;;;61.38;17.20;;;;;;;9.98;100.00;98758.28;5093863;28;20281;-67
2020/12/15 07:37:28;;;;;;;22.55;9.75;;;;;;;10.05;100.00;98754.22;5084454;28;20203;-67
2020/12/15 07:40:03;;;;;;;71.07;19.35;;;;;;;10.08;100.00;98764.75;5075265;28;20263;-67
2020/12/15 07:42:29;;;;;;;37.88;12.77;;;;;;;9.99;100.00;98760.88;5073993;28;20204;-67
2020/12/15 07:44:57;;;;;;;75.43;17.77;;;;;;;10.06;100.00;98766.69;5074537;28;20253;-66
2020/12/15 07:47:24;;;;;;;25.17;11.10;;;;;;;10.16;100.00;98759.72;5074222;28;20286;-67
2020/12/15 07:49:53;;;;;;;26.40;11.60;;;;;;;10.16;100.00;98765.09;5054298;28;20208;-66
2020/12/15 07:52:31;;;;;;;23.00;10.98;;;;;;;10.24;100.00;98767.22;5054702;28;20618;-68
2020/12/15 07:55:21;;;;;;;9.82;7.95;;;;;;;10.19;99.87;98772.94;5054075;28;20187;-66
2020/12/15 07:57:47;;;;;;;13.95;8.90;;;;;;;10.32;99.33;98772.13;5012469;28;20200;-68
2020/12/15 08:00:16;;;;;;;13.80;8.15;;;;;;;10.28;99.78;98770.56;5014948;28;20333;-67
2020/12/15 08:02:43;;;;;;;13.15;8.20;;;;;;;10.43;98.69;98769.53;5028217;28;20212;-67
2020/12/15 08:05:15;;;;;;;15.15;9.10;;;;;;;10.42;98.14;98759.72;5032217;28;20713;-67
2020/12/15 08:07:49;;;;;;;15.38;8.48;;;;;;;10.34;98.97;98762.97;5031811;28;20293;-67
2020/12/15 08:10:23;;;;;;;12.18;7.72;;;;;;;10.40;98.43;98773.31;5031669;28;20342;-67
2020/12/15 08:12:55;;;;;;;13.48;8.57;;;;;;;10.33;98.97;98769.31;5020871;28;20240;-67
2020/12/15 08:15:22;;;;;;;14.85;9.60;;;;;;;10.27;99.52;98774.25;5025244;28;20196;-67
2020/12/15 08:17:49;;;;;;;11.77;7.75;;;;;;;10.33;99.66;98781.91;5030036;28;20311;-66
2020/12/15 08:20:18;;;;;;;10.80;7.47;;;;;;;10.35;100.00;98778.13;5017860;28;20204;-67
2020/12/15 08:22:46;;;;;;;12.52;8.38;;;;;;;10.53;99.37;98788.56;5031493;28;20298;-67
2020/12/15 08:25:14;;;;;;;16.60;11.10;;;;;;;10.34;99.43;98786.34;5031453;28;20348;-67
2020/12/15 08:27:42;;;;;;;16.60;8.75;;;;;;;10.44;99.30;98785.56;5031222;28;20213;-67
2020/12/15 08:30:20;;;;;;;12.00;7.43;;;;;;;10.37;98.84;98800.41;5031173;28;20222;-68
2020/12/15 08:32:48;;;;;;;10.80;7.80;;;;;;;10.30;100.00;98801.81;5029528;28;20639;-67
2020/12/15 08:35:22;;;;;;;10.38;7.20;;;;;;;10.38;99.50;98801.31;5043908;28;20206;-67
2020/12/15 08:37:54;;;;;;;11.18;8.52;;;;;;;10.52;98.88;98798.50;5082885;28;20285;-67
2020/12/15 08:40:21;;;;;;;15.60;9.35;;;;;;;10.52;99.05;98811.94;5092059;28;20202;-67
2020/12/15 08:42:49;;;;;;;14.85;9.05;;;;;;;10.47;99.65;98797.06;5091889;28;20206;-67
2020/12/15 08:45:17;;;;;;;13.60;9.30;;;;;;;10.62;99.93;98798.69;5093140;28;20211;-66
2020/12/15 08:47:45;;;;;;;12.10;8.23;;;;;;;10.49;98.88;98812.16;5093613;28;20207;-68
2020/12/15 08:50:13;;;;;;;11.82;8.68;;;;;;;10.33;99.89;98812.34;5093341;28;20210;-68
2020/12/15 08:52:40;;;;;;;15.02;9.75;;;;;;;10.34;100.00;98807.84;5093505;28;20207;-66
2020/12/15 08:55:06;;;;;;;14.43;10.10;;;;;;;10.65;100.00;98806.56;5086608;28;20188;-67
2020/12/15 08:57:33;;;;;;;16.98;10.95;;;;;;;10.66;99.56;98813.66;5072639;28;20221;-67
2020/12/15 09:00:14;;;;;;;12.93;9.10;;;;;;;10.77;99.42;98820.97;5072436;28;20249;-66
2020/12/15 09:02:41;;;;;;;14.27;9.10;;;;;;;10.83;99.40;98820.50;5072427;28;20207;-67
2020/12/15 09:05:09;;;;;;;12.63;10.15;;;;;;;10.83;98.78;98823.22;5075393;28;20223;-67
2020/12/15 09:07:36;;;;;;;14.90;10.13;;;;;;;10.80;99.13;98818.06;5064562;28;20661;-67
2020/12/15 09:10:17;;;;;;;16.55;9.77;;;;;;;10.90;98.82;98823.63;5072314;28;20207;-67
2020/12/15 09:12:45;;;;;;;11.70;9.02;;;;;;;10.75;99.04;98822.91;5073081;28;20635;-68
2020/12/15 09:15:12;;;;;;;17.40;10.50;;;;;;;10.67;99.73;98822.59;5072352;28;20193;-67
2020/12/15 09:17:39;;;;;;;13.50;9.80;;;;;;;10.79;99.90;98829.81;5072192;28;20188;-68
2020/12/15 09:20:08;;;;;;;20.23;17.67;;;;;;;10.77;99.34;98831.75;5073397;28;20204;-66
2020/12/15 09:22:36;;;;;;;12.55;9.73;;;;;;;10.60;100.00;98838.31;5075295;28;20210;-67
2020/12/15 09:25:05;;;;;;;19.13;11.52;;;;;;;10.64;100.00;98839.81;5079439;28;20223;-67
2020/12/15 09:27:33;;;;;;;21.70;9.63;;;;;;;10.61;100.00;98837.34;5092638;28;20214;-67
2020/12/15 09:29:59;;;;;;;13.70;8.50;;;;;;;10.53;100.00;98845.94;5087580;28;20226;-67
2020/12/15 09:32:32;;;;;;;14.25;9.95;;;;;;;10.55;100.00;98844.00;5083527;28;20648;-68
2020/12/15 09:34:59;;;;;;;18.92;11.07;;;;;;;10.68;100.00;98859.31;5077693;28;20183;-68
2020/12/15 09:37:25;;;;;;;12.60;9.35;;;;;;;10.72;100.00;98855.41;5077988;28;20287;-68
2020/12/15 09:39:52;;;;;;;15.00;9.45;;;;;;;10.63;100.00;98855.13;5092218;28;20210;-68
2020/12/15 09:42:20;;;;;;;16.33;9.77;;;;;;;10.56;100.00;98851.16;5074702;28;20250;-68
2020/12/15 09:44:46;;;;;;;16.95;9.48;;;;;;;10.52;100.00;98843.38;5071847;28;20299;-67
2020/12/15 09:47:13;;;;;;;16.55;10.90;;;;;;;10.63;100.00;98852.44;5071423;28;20216;-67
2020/12/15 09:49:40;;;;;;;11.30;8.00;;;;;;;10.83;100.00;98848.34;5072118;28;20540;-67
2020/12/15 09:52:06;;;;;;;12.93;8.80;;;;;;;10.93;100.00;98853.06;5071513;28;20208;-68
2020/12/15 09:54:33;;;;;;;9.25;8.20;;;;;;;10.93;100.00;98845.84;5071348;28;20224;-68
2020/12/15 09:56:59;;;;;;;10.43;8.38;;;;;;;10.90;100.00;98855.94;5072226;28;20619;-68
2020/12/15 09:59:26;;;;;;;10.73;8.20;;;;;;;10.89;100.00;98851.56;5071206;28;20235;-67
2020/12/15 10:01:53;;;;;;;10.95;8.50;;;;;;;10.98;100.00;98853.59;5071828;28;20204;-67
2020/12/15 10:04:19;;;;;;;14.40;9.60;;;;;;;11.20;100.00;98859.16;5072063;28;20743;-66
2020/12/15 10:06:47;;;;;;;8.25;7.25;;;;;;;11.46;99.87;98853.69;5071520;28;20204;-67
2020/12/15 10:09:15;;;;;;;8.60;7.07;;;;;;;11.40;97.99;98855.00;5071544;28;20201;-66
2020/12/15 10:11:41;;;;;;;10.13;7.53;;;;;;;11.36;98.11;98861.59;5072335;28;20564;-67
2020/12/15 10:14:08;;;;;;;9.88;6.22;;;;;;;11.29;99.56;98859.47;5071891;28;20200;-67
2020/12/15 10:16:34;;;;;;;12.73;7.30;;;;;;;11.21;100.00;98850.09;5071955;28;20311;-66
2020/12/15 10:19:00;;;;;;;11.27;7.50;;;;;;;11.45;99.60;98857.38;5080241;28;20195;-66
2020/12/15 10:21:27;;;;;;;7.65;6.15;;;;;;;11.52;99.26;98860.47;5091853;28;20196;-67
2020/12/15 10:23:54;;;;;;;11.63;7.55;;;;;;;11.51;99.00;98861.44;5091609;28;20188;-68
2020/12/15 10:26:21;;;;;;;8.70;6.40;;;;;;;11.53;99.42;98868.41;5091804;28;20211;-67
2020/12/15 10:28:48;;;;;;;11.40;7.35;;;;;;;11.48;98.69;98857.97;5092164;28;20632;-67
2020/12/15 10:31:15;;;;;;;8.10;6.75;;;;;;;11.53;99.15;98859.47;5091842;28;20199;-67
2020/12/15 10:33:41;;;;;;;6.78;5.00;;;;;;;11.57;98.94;98855.59;5092236;28;20192;-67
2020/12/15 10:36:07;;;;;;;7.40;5.25;;;;;;;11.50;97.59;98859.72;5091518;28;20203;-66
2020/12/15 10:38:37;;;;;;;9.65;7.15;;;;;;;11.57;97.80;98860.97;5077156;28;20204;-68
2020/12/15 10:41:04;;;;;;;13.10;6.35;;;;;;;11.74;97.34;98862.44;5091536;28;20211;-67
2020/12/15 10:43:31;;;;;;;7.57;5.80;;;;;;;11.74;97.32;98857.91;5064576;28;20196;-67
2020/12/15 10:45:57;;;;;;;9.02;6.88;;;;;;;11.99;97.16;98859.66;5080932;28;20235;-67
2020/12/15 10:48:24;;;;;;;10.30;6.80;;;;;;;12.12;96.12;98864.97;5091250;28;20566;-68
2020/12/15 10:50:50;;;;;;;11.05;6.60;;;;;;;12.08;94.74;98858.09;5077764;28;20197;-68
2020/12/15 10:53:18;;;;;;;13.85;7.53;;;;;;;12.09;95.05;98865.19;5071311;28;20189;-68
2020/12/15 10:55:48;;;;;;;6.57;5.60;;;;;;;12.09;95.15;98855.25;5071097;28;20291;-68
2020/12/15 10:58:15;;;;;;;12.52;7.75;;;;;;;12.03;95.36;98858.44;5070794;28;20526;-68
2020/12/15 11:00:42;;;;;;;9.40;7.70;;;;;;;11.93;96.15;98856.53;5072181;28;20181;-67
2020/12/15 11:03:08;;;;;;;9.48;7.07;;;;;;;11.91;96.65;98862.06;5091312;28;20195;-68
2020/12/15 11:05:35;;;;;;;7.40;5.53;;;;;;;12.04;95.77;98862.84;5094777;28;20223;-68
2020/12/15 11:08:01;;;;;;;4.88;4.38;;;;;;;11.88;95.57;98867.69;5088439;28;20193;-68
2020/12/15 11:10:28;;;;;;;5.90;5.30;;;;;;;11.83;96.80;98868.00;5075074;28;20200;-68
2020/12/15 11:12:54;;;;;;;6.85;4.85;;;;;;;12.05;94.89;98875.38;5076605;28;20241;-67
2020/12/15 11:15:21;;;;;;;6.72;4.72;;;;;;;12.09;94.13;98866.03;5094941;28;20295;-67
2020/12/15 11:17:48;;;;;;;12.23;9.82;;;;;;;12.01;94.85;98865.78;5076911;28;20195;-67
2020/12/15 11:20:14;;;;;;;14.60;9.85;;;;;;;12.07;95.67;98868.03;5074640;28;20270;-67
2020/12/15 11:22:40;;;;;;;11.70;6.30;;;;;;;12.06;95.22;98876.22;5074893;28;20193;-67
2020/12/15 11:25:07;;;;;;;11.65;8.50;;;;;;;12.00;95.75;98876.69;5074817;28;20213;-69
2020/12/15 11:27:33;;;;;;;8.80;6.38;;;;;;;12.06;95.39;98881.63;5074332;28;20201;-67
2020/12/15 11:30:00;;;;;;;10.23;7.65;;;;;;;12.00;95.12;98882.94;5074319;28;20291;-67
2020/12/15 11:32:27;;;;;;;7.07;5.45;;;;;;;12.01;95.28;98881.97;5074624;28;20201;-68